createdAt,value
2018-05-09T00:04:21.134Z,20.02
2018-05-09T00:09:22.427Z,20.02
2018-05-09T00:14:23.734Z,20.04
2018-05-09T00:19:25.773Z,19.84
2018-05-09T00:24:27.077Z,19.81
2018-05-09T00:29:28.360Z,19.72
2018-05-09T00:34:29.670Z,19.80
2018-05-09T00:39:30.965Z,19.72
2018-05-09T00:44:32.313Z,19.73
2018-05-09T00:49:33.617Z,19.60
2018-05-09T00:54:34.905Z,19.38
2018-05-09T00:59:36.234Z,19.26
2018-05-09T01:04:37.530Z,19.22
2018-05-09T01:09:39.587Z,19.43
2018-05-09T01:14:40.869Z,19.60
2018-05-09T01:19:42.177Z,19.63
2018-05-09T01:24:43.513Z,19.52
2018-05-09T01:29:45.556Z,19.32
2018-05-09T01:34:46.853Z,19.03
2018-05-09T01:39:48.160Z,18.96
2018-05-09T01:44:49.465Z,18.80
2018-05-09T01:49:50.784Z,18.79
2018-05-09T01:54:52.089Z,18.61
2018-05-09T01:59:53.418Z,18.52
2018-05-09T02:04:54.720Z,18.51
2018-05-09T02:09:56.031Z,18.56
2018-05-09T02:14:58.101Z,18.54
2018-05-09T02:19:59.401Z,18.59
2018-05-09T02:25:00.701Z,18.58
2018-05-09T02:30:02.764Z,18.53
2018-05-09T02:35:04.071Z,18.61
2018-05-09T02:40:05.381Z,18.71
2018-05-09T02:45:06.693Z,18.79
2018-05-09T02:50:08.006Z,18.72
2018-05-09T02:55:09.319Z,18.61
2018-05-09T03:00:10.638Z,18.58
2018-05-09T03:05:11.957Z,18.54
2018-05-09T03:10:13.249Z,18.47
2018-05-09T03:15:14.547Z,18.49
2018-05-09T03:20:15.844Z,18.41
2018-05-09T03:25:17.177Z,18.36
2018-05-09T03:30:18.489Z,18.19
2018-05-09T03:35:20.518Z,18.02
2018-05-09T03:40:21.822Z,17.77
2018-05-09T03:45:23.114Z,17.71
2018-05-09T03:50:24.413Z,17.59
2018-05-09T03:55:25.700Z,17.49
2018-05-09T04:00:27.041Z,17.67
2018-05-09T04:11:12.336Z,17.41
2018-05-09T04:16:13.613Z,17.40
2018-05-09T04:21:15.653Z,17.46
2018-05-09T04:26:16.959Z,17.63
2018-05-09T04:31:18.255Z,17.87
2018-05-09T04:36:19.640Z,18.18
2018-05-09T04:41:21.635Z,18.19
2018-05-09T04:46:22.930Z,18.41
2018-05-09T04:51:24.217Z,18.56
2018-05-09T04:56:25.570Z,18.74
2018-05-09T05:01:26.942Z,18.81
2018-05-09T05:06:28.995Z,18.98
2018-05-09T05:11:30.324Z,19.08
2018-05-09T05:16:31.642Z,19.26
2018-05-09T05:21:33.041Z,19.42
2018-05-09T05:26:34.446Z,19.51
2018-05-09T05:31:35.749Z,19.71
2018-05-09T05:36:37.078Z,19.96
2018-05-09T05:41:39.151Z,20.03
2018-05-09T05:46:40.484Z,20.21
2018-05-09T05:51:42.520Z,20.41
2018-05-09T05:56:43.815Z,20.62
2018-05-09T06:01:45.159Z,20.78
2018-05-09T06:06:47.221Z,21.17
2018-05-09T06:11:48.585Z,21.44
2018-05-09T06:16:49.977Z,21.64
2018-05-09T06:21:51.323Z,21.89
2018-05-09T06:26:52.805Z,22.12
2018-05-09T06:31:54.221Z,22.34
2018-05-09T06:36:56.334Z,22.44
2018-05-09T06:41:58.377Z,22.74
2018-05-09T06:46:59.912Z,22.98
2018-05-09T06:52:01.466Z,23.15
2018-05-09T06:57:02.765Z,23.29
2018-05-09T07:02:04.101Z,23.59
2018-05-09T07:07:06.154Z,23.78
2018-05-09T07:12:07.474Z,23.99
2018-05-09T07:17:08.797Z,23.97
2018-05-09T07:22:11.559Z,24.03
2018-05-09T07:27:13.549Z,24.02
2018-05-09T07:32:14.879Z,24.36
2018-05-09T07:37:16.200Z,24.53
2018-05-09T07:42:18.292Z,24.93
2018-05-09T07:47:19.544Z,24.88
2018-05-09T07:52:20.934Z,24.92
2018-05-09T07:57:22.229Z,25.25
2018-05-09T08:02:23.546Z,25.32
2018-05-09T08:07:24.853Z,25.45
2018-05-09T08:12:26.991Z,25.50
2018-05-09T08:17:28.717Z,25.63
2018-05-09T08:22:30.441Z,25.85
2018-05-09T08:27:32.104Z,25.92
2018-05-09T08:32:34.972Z,26.12
2018-05-09T08:37:37.214Z,26.39
2018-05-09T08:42:39.205Z,26.67
2018-05-09T08:47:41.140Z,26.94
2018-05-09T08:52:42.694Z,26.75
2018-05-09T08:57:44.960Z,27.21
2018-05-09T09:02:46.310Z,27.24
2018-05-09T09:07:48.391Z,27.25
2018-05-09T09:12:50.647Z,27.53
2018-05-09T09:17:51.950Z,27.60
2018-05-09T09:22:53.324Z,27.62
2018-05-09T09:27:54.689Z,27.52
2018-05-09T09:32:56.747Z,27.64
2018-05-09T09:37:58.058Z,27.85
2018-05-09T09:42:59.365Z,28.35
2018-05-09T09:48:01.445Z,28.19
2018-05-09T09:53:02.775Z,28.10
2018-05-09T09:58:04.105Z,28.39
2018-05-09T10:03:06.238Z,28.59
2018-05-09T10:08:07.558Z,28.81
2018-05-09T10:13:09.700Z,28.61
2018-05-09T10:18:11.036Z,28.55
2018-05-09T10:23:12.402Z,28.73
2018-05-09T10:28:13.714Z,28.64
2018-05-09T10:33:15.034Z,28.68
2018-05-09T10:38:16.330Z,29.06
2018-05-09T10:43:17.626Z,29.48
2018-05-09T10:48:18.946Z,29.42
2018-05-09T10:53:20.261Z,29.45
2018-05-09T10:58:21.569Z,29.45
2018-05-09T11:03:23.657Z,29.54
2018-05-09T11:08:25.730Z,29.86
2018-05-09T11:13:27.037Z,29.98
2018-05-09T11:18:28.343Z,30.01
2018-05-09T11:23:30.401Z,30.16
2018-05-09T11:28:31.706Z,30.33
2018-05-09T11:33:33.001Z,30.64
2018-05-09T11:38:34.312Z,30.51
2018-05-09T11:43:35.622Z,30.88
2018-05-09T11:48:37.783Z,31.20
2018-05-09T11:53:39.082Z,30.64
2018-05-09T11:58:40.389Z,31.00
2018-05-09T12:03:41.702Z,31.03
2018-05-09T12:08:43.016Z,31.08
2018-05-09T12:13:44.340Z,31.15
2018-05-09T12:18:45.659Z,30.75
2018-05-09T12:23:47.781Z,30.87
2018-05-09T12:28:49.090Z,30.56
2018-05-09T12:33:50.390Z,30.47
2018-05-09T12:38:51.697Z,30.84
2018-05-09T12:43:53.147Z,30.98
2018-05-09T12:48:54.495Z,30.60
2018-05-09T12:53:56.301Z,30.29
2018-05-09T12:58:57.594Z,30.11
2018-05-09T13:03:58.982Z,30.32
2018-05-09T13:09:00.281Z,30.36
2018-05-09T13:14:01.587Z,30.44
2018-05-09T13:19:02.889Z,30.38
2018-05-09T13:24:04.205Z,30.00
2018-05-09T13:29:05.554Z,30.38
2018-05-09T13:34:06.937Z,30.43
2018-05-09T13:39:08.966Z,30.93
2018-05-09T13:44:10.279Z,30.86
2018-05-09T13:49:11.616Z,31.10
2018-05-09T13:54:13.677Z,31.03
2018-05-09T13:59:15.013Z,30.94
2018-05-09T14:04:17.049Z,31.22
2018-05-09T14:09:18.362Z,31.40
2018-05-09T14:14:19.658Z,31.39
2018-05-09T14:19:20.966Z,31.34
2018-05-09T14:24:22.321Z,31.44
2018-05-09T14:29:23.645Z,31.37
2018-05-09T14:34:24.939Z,31.54
2018-05-09T14:39:26.396Z,31.65
2018-05-09T14:44:27.821Z,30.71
2018-05-09T14:49:29.208Z,30.68
2018-05-09T14:54:30.526Z,30.66
2018-05-09T14:59:31.923Z,30.93
2018-05-09T15:04:33.354Z,31.17
2018-05-09T15:09:34.696Z,30.53
2018-05-09T15:14:36.765Z,30.79
2018-05-09T15:19:38.214Z,30.88
2018-05-09T15:24:40.322Z,31.09
2018-05-09T15:29:41.709Z,31.29
2018-05-09T15:34:43.079Z,30.96
2018-05-09T15:39:44.418Z,31.03
2018-05-09T15:44:45.733Z,30.80
2018-05-09T15:49:47.054Z,30.48
2018-05-09T15:54:48.354Z,30.84
2018-05-09T15:59:49.665Z,30.48
2018-05-09T16:04:50.986Z,30.13
2018-05-09T16:09:52.306Z,30.08
2018-05-09T16:14:54.354Z,30.17
2018-05-09T16:19:55.671Z,29.84
2018-05-09T16:24:56.985Z,30.06
2018-05-09T16:29:59.054Z,30.18
2018-05-09T16:35:00.358Z,30.21
2018-05-09T16:40:01.690Z,30.37
2018-05-09T16:45:03.020Z,30.65
2018-05-09T16:50:04.338Z,30.49
2018-05-09T16:55:06.466Z,30.05
2018-05-09T17:00:08.546Z,29.47
2018-05-09T17:05:09.854Z,29.25
2018-05-09T17:10:11.938Z,29.25
2018-05-09T17:15:13.242Z,29.18
2018-05-09T17:20:15.277Z,29.19
2018-05-09T17:25:16.602Z,29.12
2018-05-09T17:30:17.979Z,29.05
2018-05-09T17:35:19.977Z,28.98
2018-05-09T17:40:21.321Z,28.75
2018-05-09T17:45:23.421Z,28.86
2018-05-09T17:50:24.870Z,28.59
2018-05-09T17:55:26.182Z,28.43
2018-05-09T18:00:27.597Z,28.33
2018-05-09T18:05:28.935Z,28.19
2018-05-09T18:10:30.254Z,27.93
2018-05-09T18:15:31.575Z,27.84
2018-05-09T18:20:33.685Z,27.58
2018-05-09T18:25:35.736Z,27.38
2018-05-09T18:30:37.050Z,27.22
2018-05-09T18:35:39.181Z,27.03
2018-05-09T18:40:41.243Z,26.68
2018-05-09T18:45:42.573Z,26.59
2018-05-09T18:50:44.730Z,26.61
2018-05-09T18:55:47.434Z,26.59
2018-05-09T19:00:48.800Z,26.48
2018-05-09T19:05:50.276Z,26.26
2018-05-09T19:10:51.905Z,26.18
2018-05-09T19:15:53.322Z,26.04
2018-05-09T19:20:54.626Z,25.93
2018-05-09T19:25:56.725Z,25.80
2018-05-09T19:30:58.035Z,25.67
2018-05-09T19:35:59.450Z,25.50
2018-05-09T19:41:01.601Z,25.57
2018-05-09T19:46:02.950Z,25.59
2018-05-09T19:51:05.070Z,25.56
2018-05-09T19:56:07.132Z,25.45
2018-05-09T20:01:08.486Z,25.38
2018-05-09T20:06:09.822Z,25.31
2018-05-09T20:11:11.125Z,25.24
2018-05-09T20:16:12.671Z,25.14
2018-05-09T20:21:14.011Z,25.06
2018-05-09T20:26:16.223Z,24.97
2018-05-09T20:31:42.583Z,24.85
2018-05-09T20:36:43.913Z,24.70
2018-05-09T20:41:45.690Z,24.63
2018-05-09T20:46:48.821Z,24.52
2018-05-09T20:51:50.891Z,24.50
2018-05-09T20:56:52.205Z,24.47
2018-05-09T21:01:53.546Z,24.48
2018-05-09T21:06:54.890Z,24.44
2018-05-09T21:12:10.012Z,24.36
2018-05-09T21:17:11.820Z,24.31
2018-05-09T21:22:14.008Z,24.23
2018-05-09T21:27:15.351Z,24.21
2018-05-09T21:32:16.788Z,24.00
2018-05-09T21:37:19.090Z,24.08
2018-05-09T21:42:20.471Z,24.11
2018-05-09T21:47:22.668Z,24.07
2018-05-09T21:52:23.979Z,24.00
2018-05-09T21:57:25.279Z,23.87
2018-05-09T22:02:26.595Z,23.74
2018-05-09T22:07:28.637Z,23.54
2018-05-09T22:12:29.938Z,23.42
2018-05-09T22:17:31.253Z,23.30
2018-05-09T22:22:32.554Z,23.10
2018-05-09T22:27:34.605Z,22.99
2018-05-09T22:32:35.924Z,22.89
2018-05-09T22:37:37.217Z,22.99
2018-05-09T22:42:38.529Z,23.06
2018-05-09T22:47:40.570Z,22.84
2018-05-09T22:52:41.880Z,22.76
2018-05-09T22:57:43.182Z,22.83
2018-05-09T23:02:44.490Z,22.90
2018-05-09T23:07:45.807Z,22.88
2018-05-09T23:12:47.115Z,22.76
2018-05-09T23:17:48.408Z,22.69
2018-05-09T23:22:49.715Z,22.60
2018-05-09T23:27:51.021Z,22.47
2018-05-09T23:32:52.325Z,22.41
2018-05-09T23:37:53.609Z,22.31
2018-05-09T23:42:54.925Z,22.23
2018-05-09T23:47:56.984Z,22.12
2018-05-09T23:52:58.288Z,22.09
2018-05-09T23:57:59.590Z,21.91
